Coral Princess — ZCDF4 — position and weather

sailwx.info

Track history (hours):
 
Tides and Currents Weather Stations Pressure Air Temp Water Temp Dewpoint Dewpoint Depression Visibility Wind Speed Wind Dir Waves Ship Positions

Coral Princess

Operator: Princess Cruises

Last reported at 2019-Jul-15 23:57 UTC. Time now 2019-Jul-16 11:21 UTC.
Position N 58°19' W 136°13'.

Type: Passenger vessel. MMSI: 310376000.

Date/timePositionNaut miles runAvg speedWind from/ knotsBaromVisibWave heightAir tempDewpointWater temp
2019-Jul-15 23:57N 58°19' W 136°13'716.6
2019-Jul-15 23:30N 58°22' W 136°00'510.2
2019-Jul-15 23:00N 58°27' W 136°01'815.4
2019-Jul-15 22:30N 58°35' W 136°03'714.2
2019-Jul-15 22:00N 58°42' W 136°06'1018.6
2019-Jul-15 21:28N 58°47' W 136°23'3 0.6
2019-Jul-15 16:01N 58°49' W 136°28'117.2
2019-Jul-15 15:57N 58°48' W 136°27'817.0
2019-Jul-15 15:29N 58°43' W 136°15'817.2
2019-Jul-15 15:01N 58°37' W 136°04'714.7
2019-Jul-15 14:30N 58°30' W 136°03'510.7
2019-Jul-15 14:00N 58°25' W 135°57'510.1
2019-Jul-15 13:30N 58°20' W 135°56'612.6
2019-Jul-15 13:00N 58°18' W 135°45'612.2
2019-Jul-15 12:30N 58°16' W 135°34'612.0
2019-Jul-15 12:00N 58°14' W 135°23'  
2019-Jul-12 11:00N 54°56' W 131°08'2312.5
2019-Jul-12 09:10N 54°34' W 131°18'212.4
2019-Jul-12 08:59N 54°32' W 131°16'612.4
2019-Jul-12 08:30N 54°27' W 131°12'612.2
2019-Jul-12 08:00N 54°21' W 131°07'613.0
2019-Jul-12 07:30N 54°15' W 131°03'612.9
2019-Jul-12 07:00N 54°08' W 131°02'612.9
2019-Jul-12 06:30N 54°02' W 131°00'712.7
2019-Jul-12 06:00N 53°56' W 131°01'612.8
2019-Jul-12 05:30N 53°49' W 131°02'713.0
2019-Jul-12 05:00N 53°43' W 131°02'713.1
2019-Jul-12 04:30N 53°36' W 131°01'713.4
2019-Jul-12 04:00N 53°30' W 131°01'8813.7
2019-Jul-11 21:35N 52°14' W 129°47'112.4
2019-Jul-11 21:30N 52°13' W 129°46'714.5
2019-Jul-11 21:00N 52°07' W 129°40'714.4
2019-Jul-11 20:30N 52°01' W 129°33'713.9
2019-Jul-11 20:00N 51°55' W 129°27'714.2
2019-Jul-11 19:31N 51°49' W 129°21'714.5
2019-Jul-11 19:00N 51°43' W 129°14'714.2
2019-Jul-11 18:30N 51°37' W 129°08'713.8
2019-Jul-11 18:01N 51°32' W 129°02'714.3
2019-Jul-11 17:30N 51°26' W 128°55'714.5
2019-Jul-11 17:00N 51°22' W 128°46'714.7
2019-Jul-11 16:30N 51°18' W 128°36'815.6
2019-Jul-11 16:00N 51°14' W 128°25'815.6
2019-Jul-11 15:30N 51°09' W 128°15'815.5
2019-Jul-11 15:00N 51°05' W 128°04'815.2
2019-Jul-11 14:30N 51°01' W 127°54'713.5
2019-Jul-11 14:01N 50°58' W 127°45'917.3
2019-Jul-11 13:30N 50°52' W 127°34'8717.0
2019-Jul-11 08:24N 50°20' W 125°27'614.8
2019-Jul-11 08:00N 50°15' W 125°23'714.8
2019-Jul-11 07:31N 50°08' W 125°21'612.6
2019-Jul-11 07:00N 50°03' W 125°14'612.3
2019-Jul-11 06:30N 49°58' W 125°10'612.7
2019-Jul-11 06:00N 49°53' W 125°03'713.5
2019-Jul-11 05:31N 49°48' W 124°56'815.4
2019-Jul-11 05:00N 49°43' W 124°47'714.9
2019-Jul-11 04:30N 49°37' W 124°40'713.8
2019-Jul-11 04:00N 49°32' W 124°33'815.9
2019-Jul-11 03:30N 49°27' W 124°23'816.3
2019-Jul-11 03:00N 49°24' W 124°12'815.9
2019-Jul-11 02:30N 49°23' W 123°60'816.0
2019-Jul-11 02:00N 49°21' W 123°48'714.5
2019-Jul-11 01:30N 49°20' W 123°37'713.8
2019-Jul-11 01:00N 49°19' W 123°26'713.7
2019-Jul-11 00:30N 49°19' W 123°16'611.2
2019-Jul-11 00:00N 49°18' W 123°07'1 2.2
2019-Jul-10 23:28N 49°17' W 123°06'0 0.0
2019-Jul-10 22:55N 49°17' W 123°06'0 0.0
2019-Jul-10 22:28N 49°17' W 123°06'0 0.0
2019-Jul-10 21:58N 49°17' W 123°06'0 0.0
2019-Jul-10 21:28N 49°17' W 123°06'0 0.0
2019-Jul-10 20:58N 49°17' W 123°06'0 0.0
2019-Jul-10 20:28N 49°17' W 123°06'0 0.0
2019-Jul-10 19:55N 49°17' W 123°06'0 0.0
2019-Jul-10 19:28N 49°17' W 123°06'0 0.0
2019-Jul-10 18:58N 49°17' W 123°06'0 0.0
2019-Jul-10 18:28N 49°17' W 123°06'0 0.0
2019-Jul-10 17:58N 49°17' W 123°06'0 0.0
2019-Jul-10 17:28N 49°17' W 123°06'0 0.0
2019-Jul-10 16:55N 49°17' W 123°06'0 0.0
2019-Jul-10 16:28N 49°17' W 123°06'0 0.0
2019-Jul-10 15:52N 49°17' W 123°06'0 0.0
2019-Jul-10 15:22N 49°17' W 123°06'0 0.0
2019-Jul-10 14:58N 49°17' W 123°06'0 0.0
2019-Jul-10 14:28N 49°17' W 123°06'0 0.0
2019-Jul-10 14:00N 49°17' W 123°06'0 0.4
2019-Jul-10 13:30N 49°17' W 123°06'3 7.0
2019-Jul-10 13:00N 49°19' W 123°11'815.5
2019-Jul-10 12:30N 49°19' W 123°23'816.3
2019-Jul-10 12:00N 49°18' W 123°35'714.9
2019-Jul-10 11:30N 49°19' W 123°47'816.7
2019-Jul-10 11:00N 49°21' W 123°59'816.6
2019-Jul-10 10:30N 49°23' W 124°11'816.1
2019-Jul-10 10:00N 49°27' W 124°22'815.6
2019-Jul-10 09:30N 49°31' W 124°32'816.6
2019-Jul-10 09:01N 49°38' W 124°40'816.4
2019-Jul-10 08:30N 49°44' W 124°49'816.5
2019-Jul-10 08:01N 49°50' W 124°58'917.4
2019-Jul-10 07:30N 49°56' W 125°07'714.5
2019-Jul-10 07:00N 50°02' W 125°13'612.5
2019-Jul-10 06:30N 50°07' W 125°19'612.2
2019-Jul-10 06:00N 50°13' W 125°23'714.7
2019-Jul-10 05:30N 50°20' W 125°26'8514.8
2019-Jul-09 23:46N 50°51' W 127°30'617.4
2019-Jul-09 23:26N 50°54' W 127°38'716.9
2019-Jul-09 23:00N 50°59' W 127°47'611.3
2019-Jul-09 22:30N 51°02' W 127°54'612.5
2019-Jul-09 22:00N 51°06' W 128°02'713.1
2019-Jul-09 21:30N 51°09' W 128°11'612.2
2019-Jul-09 21:00N 51°12' W 128°20'612.3
2019-Jul-09 20:30N 51°15' W 128°28'612.3
2019-Jul-09 20:00N 51°18' W 128°37'612.7
2019-Jul-09 19:31N 51°21' W 128°45'612.5
2019-Jul-09 19:00N 51°25' W 128°53'612.5
2019-Jul-09 18:30N 51°31' W 128°59'613.0
2019-Jul-09 18:00N 51°36' W 129°05'612.9
2019-Jul-09 17:30N 51°41' W 129°10'613.0
2019-Jul-09 17:00N 51°47' W 129°16'714.6
2019-Jul-09 16:31N 51°53' W 129°23'714.9
2019-Jul-09 16:00N 51°59' W 129°30'714.9
2019-Jul-09 15:30N 52°05' W 129°36'815.2
2019-Jul-09 15:00N 52°12' W 129°43'814.5
2019-Jul-09 14:26N 52°18' W 129°51'1216.4
2019-Jul-09 13:43N 52°28' W 130°02'317.0
2019-Jul-09 13:31N 52°31' W 130°05'1117.2
2019-Jul-09 12:53N 52°40' W 130°15'617.0
2019-Jul-09 12:31N 52°45' W 130°20'1217.0
2019-Jul-09 11:50N 52°55' W 130°31'816.7
2019-Jul-09 11:22N 53°01' W 130°38'1516.8
2019-Jul-09 10:27N 53°14' W 130°53'1317.0
2019-Jul-09 09:40N 53°26' W 131°00'317.1
2019-Jul-09 09:30N 53°29' W 131°01'817.0
2019-Jul-09 09:00N 53°38' W 131°02'917.3
2019-Jul-09 08:30N 53°46' W 131°03'917.4
2019-Jul-09 08:01N 53°55' W 131°02'917.5
2019-Jul-09 07:30N 54°04' W 131°03'917.2
2019-Jul-09 07:00N 54°12' W 131°03'816.1
2019-Jul-09 06:30N 54°20' W 131°06'816.2
2019-Jul-09 06:00N 54°27' W 131°12'816.0
2019-Jul-09 05:30N 54°35' W 131°18'1117.3
2019-Jul-09 04:52N 54°45' W 131°13'617.4
2019-Jul-09 04:30N 54°51' W 131°09'  
2019-Jul-06 06:14N 58°07' W 135°08'710.3
2019-Jul-06 05:35N 58°10' W 135°20'110.7
2019-Jul-06 05:30N 58°11' W 135°21'710.7
2019-Jul-06 04:53N 58°14' W 135°31'411.3
2019-Jul-06 04:30N 58°17' W 135°38'611.5
2019-Jul-06 04:00N 58°19' W 135°48'510.2
2019-Jul-06 03:30N 58°21' W 135°57'612.3
2019-Jul-06 03:00N 58°27' W 136°01'612.9
2019-Jul-06 02:30N 58°33' W 136°04'1212.3
2019-Jul-06 01:30N 58°44' W 136°13'714.3
2019-Jul-06 00:59N 58°48' W 136°26'  
Track history (hours):
 
Tides and Currents Weather Stations Pressure Air Temp Water Temp Dewpoint Dewpoint Depression Visibility Wind Speed Wind Dir Waves Ship Positions

Coral Princess

Operator: Princess Cruises

Last reported at 2019-Jul-15 23:57 UTC. Time now 2019-Jul-16 11:21 UTC.
Position N 58°19' W 136°13'.

Type: Passenger vessel. MMSI: 310376000.

Date/timePositionNaut miles runAvg speedWind from/ knotsBaromVisibWave heightAir tempDewpointWater temp
2019-Jul-15 23:57N 58°19' W 136°13'716.6
2019-Jul-15 23:30N 58°22' W 136°00'510.2
2019-Jul-15 23:00N 58°27' W 136°01'815.4
2019-Jul-15 22:30N 58°35' W 136°03'714.2
2019-Jul-15 22:00N 58°42' W 136°06'1018.6
2019-Jul-15 21:28N 58°47' W 136°23'3 0.6
2019-Jul-15 16:01N 58°49' W 136°28'117.2
2019-Jul-15 15:57N 58°48' W 136°27'817.0
2019-Jul-15 15:29N 58°43' W 136°15'817.2
2019-Jul-15 15:01N 58°37' W 136°04'714.7
2019-Jul-15 14:30N 58°30' W 136°03'510.7
2019-Jul-15 14:00N 58°25' W 135°57'510.1
2019-Jul-15 13:30N 58°20' W 135°56'612.6
2019-Jul-15 13:00N 58°18' W 135°45'612.2
2019-Jul-15 12:30N 58°16' W 135°34'612.0
2019-Jul-15 12:00N 58°14' W 135°23'  
2019-Jul-12 11:00N 54°56' W 131°08'2312.5
2019-Jul-12 09:10N 54°34' W 131°18'212.4
2019-Jul-12 08:59N 54°32' W 131°16'612.4
2019-Jul-12 08:30N 54°27' W 131°12'612.2
2019-Jul-12 08:00N 54°21' W 131°07'613.0
2019-Jul-12 07:30N 54°15' W 131°03'612.9
2019-Jul-12 07:00N 54°08' W 131°02'612.9
2019-Jul-12 06:30N 54°02' W 131°00'712.7
2019-Jul-12 06:00N 53°56' W 131°01'612.8
2019-Jul-12 05:30N 53°49' W 131°02'713.0
2019-Jul-12 05:00N 53°43' W 131°02'713.1
2019-Jul-12 04:30N 53°36' W 131°01'713.4
2019-Jul-12 04:00N 53°30' W 131°01'8813.7
2019-Jul-11 21:35N 52°14' W 129°47'112.4
2019-Jul-11 21:30N 52°13' W 129°46'714.5
2019-Jul-11 21:00N 52°07' W 129°40'714.4
2019-Jul-11 20:30N 52°01' W 129°33'713.9
2019-Jul-11 20:00N 51°55' W 129°27'714.2
2019-Jul-11 19:31N 51°49' W 129°21'714.5
2019-Jul-11 19:00N 51°43' W 129°14'714.2
2019-Jul-11 18:30N 51°37' W 129°08'713.8
2019-Jul-11 18:01N 51°32' W 129°02'714.3
2019-Jul-11 17:30N 51°26' W 128°55'714.5
2019-Jul-11 17:00N 51°22' W 128°46'714.7
2019-Jul-11 16:30N 51°18' W 128°36'815.6
2019-Jul-11 16:00N 51°14' W 128°25'815.6
2019-Jul-11 15:30N 51°09' W 128°15'815.5
2019-Jul-11 15:00N 51°05' W 128°04'815.2
2019-Jul-11 14:30N 51°01' W 127°54'713.5
2019-Jul-11 14:01N 50°58' W 127°45'917.3
2019-Jul-11 13:30N 50°52' W 127°34'8717.0
2019-Jul-11 08:24N 50°20' W 125°27'614.8
2019-Jul-11 08:00N 50°15' W 125°23'714.8
2019-Jul-11 07:31N 50°08' W 125°21'612.6
2019-Jul-11 07:00N 50°03' W 125°14'612.3
2019-Jul-11 06:30N 49°58' W 125°10'612.7
2019-Jul-11 06:00N 49°53' W 125°03'713.5
2019-Jul-11 05:31N 49°48' W 124°56'815.4
2019-Jul-11 05:00N 49°43' W 124°47'714.9
2019-Jul-11 04:30N 49°37' W 124°40'713.8
2019-Jul-11 04:00N 49°32' W 124°33'815.9
2019-Jul-11 03:30N 49°27' W 124°23'816.3
2019-Jul-11 03:00N 49°24' W 124°12'815.9
2019-Jul-11 02:30N 49°23' W 123°60'816.0
2019-Jul-11 02:00N 49°21' W 123°48'714.5
2019-Jul-11 01:30N 49°20' W 123°37'713.8
2019-Jul-11 01:00N 49°19' W 123°26'713.7
2019-Jul-11 00:30N 49°19' W 123°16'611.2
2019-Jul-11 00:00N 49°18' W 123°07'1 2.2
2019-Jul-10 23:28N 49°17' W 123°06'0 0.0
2019-Jul-10 22:55N 49°17' W 123°06'0 0.0
2019-Jul-10 22:28N 49°17' W 123°06'0 0.0
2019-Jul-10 21:58N 49°17' W 123°06'0 0.0
2019-Jul-10 21:28N 49°17' W 123°06'0 0.0
2019-Jul-10 20:58N 49°17' W 123°06'0 0.0
2019-Jul-10 20:28N 49°17' W 123°06'0 0.0
2019-Jul-10 19:55N 49°17' W 123°06'0 0.0
2019-Jul-10 19:28N 49°17' W 123°06'0 0.0
2019-Jul-10 18:58N 49°17' W 123°06'0 0.0
2019-Jul-10 18:28N 49°17' W 123°06'0 0.0
2019-Jul-10 17:58N 49°17' W 123°06'0 0.0
2019-Jul-10 17:28N 49°17' W 123°06'0 0.0
2019-Jul-10 16:55N 49°17' W 123°06'0 0.0
2019-Jul-10 16:28N 49°17' W 123°06'0 0.0
2019-Jul-10 15:52N 49°17' W 123°06'0 0.0
2019-Jul-10 15:22N 49°17' W 123°06'0 0.0
2019-Jul-10 14:58N 49°17' W 123°06'0 0.0
2019-Jul-10 14:28N 49°17' W 123°06'0 0.0
2019-Jul-10 14:00N 49°17' W 123°06'0 0.4
2019-Jul-10 13:30N 49°17' W 123°06'3 7.0
2019-Jul-10 13:00N 49°19' W 123°11'815.5
2019-Jul-10 12:30N 49°19' W 123°23'816.3
2019-Jul-10 12:00N 49°18' W 123°35'714.9
2019-Jul-10 11:30N 49°19' W 123°47'816.7
2019-Jul-10 11:00N 49°21' W 123°59'816.6
2019-Jul-10 10:30N 49°23' W 124°11'816.1
2019-Jul-10 10:00N 49°27' W 124°22'815.6
2019-Jul-10 09:30N 49°31' W 124°32'816.6
2019-Jul-10 09:01N 49°38' W 124°40'816.4
2019-Jul-10 08:30N 49°44' W 124°49'816.5
2019-Jul-10 08:01N 49°50' W 124°58'917.4
2019-Jul-10 07:30N 49°56' W 125°07'714.5
2019-Jul-10 07:00N 50°02' W 125°13'612.5
2019-Jul-10 06:30N 50°07' W 125°19'612.2
2019-Jul-10 06:00N 50°13' W 125°23'714.7
2019-Jul-10 05:30N 50°20' W 125°26'8514.8
2019-Jul-09 23:46N 50°51' W 127°30'617.4
2019-Jul-09 23:26N 50°54' W 127°38'716.9
2019-Jul-09 23:00N 50°59' W 127°47'611.3
2019-Jul-09 22:30N 51°02' W 127°54'612.5
2019-Jul-09 22:00N 51°06' W 128°02'713.1
2019-Jul-09 21:30N 51°09' W 128°11'612.2
2019-Jul-09 21:00N 51°12' W 128°20'612.3
2019-Jul-09 20:30N 51°15' W 128°28'612.3
2019-Jul-09 20:00N 51°18' W 128°37'612.7
2019-Jul-09 19:31N 51°21' W 128°45'612.5
2019-Jul-09 19:00N 51°25' W 128°53'612.5
2019-Jul-09 18:30N 51°31' W 128°59'613.0
2019-Jul-09 18:00N 51°36' W 129°05'612.9
2019-Jul-09 17:30N 51°41' W 129°10'613.0
2019-Jul-09 17:00N 51°47' W 129°16'714.6
2019-Jul-09 16:31N 51°53' W 129°23'714.9
2019-Jul-09 16:00N 51°59' W 129°30'714.9
2019-Jul-09 15:30N 52°05' W 129°36'815.2
2019-Jul-09 15:00N 52°12' W 129°43'814.5
2019-Jul-09 14:26N 52°18' W 129°51'1216.4
2019-Jul-09 13:43N 52°28' W 130°02'317.0
2019-Jul-09 13:31N 52°31' W 130°05'1117.2
2019-Jul-09 12:53N 52°40' W 130°15'617.0
2019-Jul-09 12:31N 52°45' W 130°20'1217.0
2019-Jul-09 11:50N 52°55' W 130°31'816.7
2019-Jul-09 11:22N 53°01' W 130°38'1516.8
2019-Jul-09 10:27N 53°14' W 130°53'1317.0
2019-Jul-09 09:40N 53°26' W 131°00'317.1
2019-Jul-09 09:30N 53°29' W 131°01'817.0
2019-Jul-09 09:00N 53°38' W 131°02'917.3
2019-Jul-09 08:30N 53°46' W 131°03'917.4
2019-Jul-09 08:01N 53°55' W 131°02'917.5
2019-Jul-09 07:30N 54°04' W 131°03'917.2
2019-Jul-09 07:00N 54°12' W 131°03'816.1
2019-Jul-09 06:30N 54°20' W 131°06'816.2
2019-Jul-09 06:00N 54°27' W 131°12'816.0
2019-Jul-09 05:30N 54°35' W 131°18'1117.3
2019-Jul-09 04:52N 54°45' W 131°13'617.4
2019-Jul-09 04:30N 54°51' W 131°09'  
2019-Jul-06 06:14N 58°07' W 135°08'710.3
2019-Jul-06 05:35N 58°10' W 135°20'110.7
2019-Jul-06 05:30N 58°11' W 135°21'710.7
2019-Jul-06 04:53N 58°14' W 135°31'411.3
2019-Jul-06 04:30N 58°17' W 135°38'611.5
2019-Jul-06 04:00N 58°19' W 135°48'510.2
2019-Jul-06 03:30N 58°21' W 135°57'612.3
2019-Jul-06 03:00N 58°27' W 136°01'612.9
2019-Jul-06 02:30N 58°33' W 136°04'1212.3
2019-Jul-06 01:30N 58°44' W 136°13'714.3
2019-Jul-06 00:59N 58°48' W 136°26'  

Dump ship's entire track history